Time;durP1;ratioP1;P1;durP2;ratioP2;P2;SDS_P1;SDS_P2;PMS_P1;PMS_P2;Temp;Humidity;BMP_temperature;BMP_pressure;BME280_temperature;BME280_humidity;BME280_pressure;Samples;Min_cycle;Max_cycle;Signal;HPM_P1;HPM_P2
2023/03/05 00:00:44;;;;;;;44.00;21.98;;;;;;;;;;5089518;28;20035;-70
2023/03/05 00:03:09;;;;;;;43.33;21.58;;;;;;;;;;5090038;28;20395;-73
2023/03/05 00:05:35;;;;;;;41.47;22.08;;;;;;;;;;5090337;28;20108;-72
2023/03/05 00:08:00;;;;;;;39.80;21.42;;;;;;;;;;5089985;28;20036;-72
2023/03/05 00:10:26;;;;;;;44.55;22.15;;;;;;;;;;5089986;28;20103;-74
2023/03/05 00:12:51;;;;;;;42.10;22.05;;;;;;;;;;5089981;28;20024;-71
2023/03/05 00:15:17;;;;;;;45.17;21.48;;;;;;;;;;5089465;28;20020;-71
2023/03/05 00:17:42;;;;;;;45.45;21.42;;;;;;;;;;5089812;28;20031;-69
2023/03/05 00:20:08;;;;;;;43.15;21.85;;;;;;;;;;5089915;28;20055;-72
2023/03/05 00:22:35;;;;;;;44.00;21.65;;;;;;;;;;5089566;28;20028;-71
2023/03/05 00:25:02;;;;;;;40.85;21.77;;;;;;;;;;5089792;28;20028;-73
2023/03/05 00:27:28;;;;;;;38.88;20.40;;;;;;;;;;5089906;28;20024;-70
2023/03/05 00:29:53;;;;;;;40.25;20.80;;;;;;;;;;5089445;28;20319;-70
2023/03/05 00:32:18;;;;;;;41.20;21.20;;;;;;;;;;5089332;28;20501;-70
2023/03/05 00:34:44;;;;;;;39.47;20.05;;;;;;;;;;5089707;28;20028;-73
2023/03/05 00:37:09;;;;;;;39.05;20.90;;;;;;;;;;5071222;28;20057;-71
2023/03/05 00:39:35;;;;;;;40.70;21.20;;;;;;;;;;5089530;28;20556;-73
2023/03/05 00:42:00;;;;;;;41.25;20.58;;;;;;;;;;5089408;28;20163;-74
2023/03/05 00:44:26;;;;;;;40.55;21.35;;;;;;;;;;5089463;28;20016;-74
2023/03/05 00:46:51;;;;;;;42.10;20.67;;;;;;;;;;5071264;28;20476;-72
2023/03/05 00:49:16;;;;;;;41.72;20.92;;;;;;;;;;5089559;28;20502;-72
2023/03/05 00:51:42;;;;;;;37.60;19.85;;;;;;;;;;5089356;28;20480;-72
2023/03/05 00:54:07;;;;;;;45.30;21.92;;;;;;;;;;5089137;28;20016;-72
2023/03/05 00:56:33;;;;;;;41.92;21.63;;;;;;;;;;5089368;28;20024;-71
2023/03/05 00:58:58;;;;;;;42.63;21.25;;;;;;;;;;5089314;28;20024;-71
2023/03/05 01:01:24;;;;;;;39.45;21.67;;;;;;;;;;5089466;28;20380;-72
2023/03/05 01:03:50;;;;;;;44.08;21.40;;;;;;;;;;5093652;28;20472;-71
2023/03/05 01:06:16;;;;;;;42.28;21.25;;;;;;;;;;5075168;28;20024;-71
2023/03/05 01:08:43;;;;;;;41.67;21.98;;;;;;;;;;5094178;28;20653;-70
2023/03/05 01:11:10;;;;;;;40.33;21.02;;;;;;;;;;5095149;28;20032;-70
2023/03/05 01:13:36;;;;;;;41.47;21.38;;;;;;;;;;5093014;28;20056;-71
2023/03/05 01:16:02;;;;;;;42.05;21.48;;;;;;;;;;5093696;28;20024;-71
2023/03/05 01:18:28;;;;;;;41.90;21.40;;;;;;;;;;5093452;28;20076;-73
2023/03/05 01:20:53;;;;;;;39.90;21.17;;;;;;;;;;5093254;28;20033;-72
2023/03/05 01:23:19;;;;;;;40.63;20.58;;;;;;;;;;5092832;28;20032;-71
2023/03/05 01:25:44;;;;;;;42.83;21.38;;;;;;;;;;5093164;28;20444;-70
2023/03/05 01:28:10;;;;;;;43.63;21.05;;;;;;;;;;5092831;28;20055;-72
2023/03/05 01:30:35;;;;;;;37.85;20.33;;;;;;;;;;5092620;28;20032;-72
2023/03/05 01:33:01;;;;;;;42.42;21.63;;;;;;;;;;5092737;28;20360;-71
2023/03/05 01:35:27;;;;;;;40.75;21.10;;;;;;;;;;5093098;28;20464;-71
2023/03/05 01:37:53;;;;;;;41.85;21.15;;;;;;;;;;5092599;28;20036;-74
2023/03/05 01:40:24;;;;;;;44.25;21.90;;;;;;;;;;5093014;28;20372;-70
2023/03/05 01:42:58;;;;;;;39.05;20.75;;;;;;;;;;5092445;28;20031;-72
2023/03/05 01:45:24;;;;;;;39.88;20.58;;;;;;;;;;5092336;28;20024;-71
2023/03/05 01:47:49;;;;;;;40.28;20.58;;;;;;;;;;5092506;28;20020;-71
2023/03/05 01:50:21;;;;;;;40.92;21.13;;;;;;;;;;5092583;28;20032;-71
2023/03/05 01:52:56;;;;;;;42.35;20.55;;;;;;;;;;5092086;28;20044;-74
2023/03/05 01:55:24;;;;;;;37.55;19.92;;;;;;;;;;5092755;28;20031;-74
2023/03/05 01:57:54;;;;;;;40.83;20.55;;;;;;;;;;5092623;28;20020;-71
2023/03/05 02:00:29;;;;;;;43.20;21.60;;;;;;;;;;5092114;28;20085;-75
2023/03/05 02:02:57;;;;;;;41.33;20.13;;;;;;;;;;5091745;28;20127;-72
2023/03/05 02:05:27;;;;;;;40.42;20.35;;;;;;;;;;5092718;28;20032;-71
2023/03/05 02:07:54;;;;;;;38.22;19.98;;;;;;;;;;5092314;28;20125;-74
2023/03/05 02:10:24;;;;;;;39.10;20.38;;;;;;;;;;5092639;28;20032;-73
2023/03/05 02:12:51;;;;;;;40.95;21.23;;;;;;;;;;5091980;28;20055;-73
2023/03/05 02:15:16;;;;;;;40.22;20.83;;;;;;;;;;5073971;28;20023;-72
2023/03/05 02:17:42;;;;;;;41.92;20.80;;;;;;;;;;5091861;28;20036;-74
2023/03/05 02:20:11;;;;;;;42.92;21.92;;;;;;;;;;5091972;28;20363;-72
2023/03/05 02:22:37;;;;;;;42.85;21.23;;;;;;;;;;5091705;28;20081;-73
2023/03/05 02:25:15;;;;;;;41.83;20.65;;;;;;;;;;5091881;28;20068;-72
2023/03/05 02:27:43;;;;;;;41.80;20.75;;;;;;;;;;5091940;28;20507;-71
2023/03/05 02:30:09;;;;;;;44.90;20.70;;;;;;;;;;5091493;28;20032;-72
2023/03/05 02:32:35;;;;;;;41.50;21.02;;;;;;;;;;5092017;28;20047;-71
2023/03/05 02:35:00;;;;;;;41.10;21.08;;;;;;;;;;5091931;28;20419;-71
2023/03/05 02:37:25;;;;;;;42.25;20.80;;;;;;;;;;5091302;28;20047;-70
2023/03/05 02:39:51;;;;;;;40.03;20.17;;;;;;;;;;5091825;28;20494;-71
2023/03/05 02:42:16;;;;;;;45.65;20.95;;;;;;;;;;5091568;28;20031;-75
2023/03/05 02:44:41;;;;;;;44.55;21.40;;;;;;;;;;5091160;28;20034;-72
2023/03/05 02:47:07;;;;;;;41.22;20.50;;;;;;;;;;5091700;28;20429;-70
2023/03/05 02:49:32;;;;;;;40.85;20.15;;;;;;;;;;5091643;28;20057;-71
2023/03/05 02:51:58;;;;;;;46.05;21.15;;;;;;;;;;5091635;28;20124;-73
2023/03/05 02:54:23;;;;;;;41.65;20.88;;;;;;;;;;5090882;28;20024;-72
2023/03/05 02:56:49;;;;;;;39.97;20.23;;;;;;;;;;5091236;28;20561;-72
2023/03/05 02:59:14;;;;;;;45.00;20.42;;;;;;;;;;5090897;28;20024;-71
2023/03/05 03:01:40;;;;;;;39.90;20.20;;;;;;;;;;5091302;28;20044;-71
2023/03/05 03:04:05;;;;;;;40.67;20.65;;;;;;;;;;5072768;28;20462;-70
2023/03/05 03:06:30;;;;;;;39.95;19.90;;;;;;;;;;5091437;28;20024;-71
2023/03/05 03:08:56;;;;;;;44.88;20.38;;;;;;;;;;5090981;28;20052;-73
2023/03/05 03:11:22;;;;;;;37.33;20.35;;;;;;;;;;5091114;28;20051;-73
2023/03/05 03:13:47;;;;;;;39.58;19.90;;;;;;;;;;5090126;28;20480;-72
2023/03/05 03:16:14;;;;;;;41.90;21.10;;;;;;;;;;5091159;28;20161;-72
2023/03/05 03:18:40;;;;;;;40.80;20.30;;;;;;;;;;5090927;28;20408;-70
2023/03/05 03:21:05;;;;;;;39.00;20.35;;;;;;;;;;5091177;28;20028;-70
2023/03/05 03:23:31;;;;;;;41.47;19.40;;;;;;;;;;5090631;28;20039;-71
2023/03/05 03:25:57;;;;;;;37.83;18.88;;;;;;;;;;5090454;28;20028;-72
2023/03/05 03:28:23;;;;;;;41.72;20.02;;;;;;;;;;5090629;28;20020;-71
2023/03/05 03:30:49;;;;;;;40.83;19.63;;;;;;;;;;5090312;28;20098;-72
2023/03/05 03:33:16;;;;;;;42.53;20.02;;;;;;;;;;5090340;28;20067;-71
2023/03/05 03:35:44;;;;;;;38.17;19.75;;;;;;;;;;5090719;28;20375;-73
2023/03/05 03:38:10;;;;;;;38.15;19.83;;;;;;;;;;5090460;28;20028;-73
2023/03/05 03:40:36;;;;;;;43.10;20.85;;;;;;;;;;5091030;28;20024;-72
2023/03/05 03:43:02;;;;;;;40.53;19.98;;;;;;;;;;5090525;28;20483;-70
2023/03/05 03:45:27;;;;;;;42.45;20.63;;;;;;;;;;5090014;28;20111;-74
2023/03/05 03:47:53;;;;;;;40.35;19.80;;;;;;;;;;5090311;28;20055;-73
2023/03/05 03:50:20;;;;;;;38.72;20.08;;;;;;;;;;5090412;28;20040;-71
2023/03/05 03:52:46;;;;;;;40.53;20.38;;;;;;;;;;5090162;28;20035;-71
2023/03/05 03:55:11;;;;;;;36.83;19.60;;;;;;;;;;5090056;28;20024;-70
2023/03/05 03:57:36;;;;;;;39.50;19.92;;;;;;;;;;5090452;28;20060;-71
2023/03/05 04:00:05;;;;;;;36.95;20.02;;;;;;;;;;5089954;28;20092;-73
2023/03/05 04:02:31;;;;;;;43.58;19.90;;;;;;;;;;5090089;28;20024;-71
2023/03/05 04:04:56;;;;;;;40.97;20.33;;;;;;;;;;5089893;28;20069;-72
2023/03/05 04:07:22;;;;;;;40.08;20.23;;;;;;;;;;5089949;28;20096;-73
2023/03/05 04:09:47;;;;;;;41.45;19.83;;;;;;;;;;5089908;28;20024;-72
2023/03/05 04:12:17;;;;;;;41.30;19.60;;;;;;;;;;5090293;28;20028;-72
2023/03/05 04:14:44;;;;;;;36.85;19.27;;;;;;;;;;5089611;28;20032;-71
2023/03/05 04:17:11;;;;;;;39.08;20.00;;;;;;;;;;5090285;28;20028;-74
2023/03/05 04:19:36;;;;;;;39.95;20.33;;;;;;;;;;5089902;28;20629;-72
2023/03/05 04:22:01;;;;;;;39.95;19.55;;;;;;;;;;5089956;28;20035;-72
2023/03/05 04:24:27;;;;;;;42.70;20.20;;;;;;;;;;5089281;28;20054;-71
2023/03/05 04:26:52;;;;;;;41.65;20.65;;;;;;;;;;5089772;28;20487;-72
2023/03/05 04:29:18;;;;;;;36.28;18.95;;;;;;;;;;5089500;28;20024;-72
2023/03/05 04:31:44;;;;;;;40.72;20.38;;;;;;;;;;5089804;28;20031;-71
2023/03/05 04:34:09;;;;;;;40.20;20.15;;;;;;;;;;5090543;28;20027;-70
2023/03/05 04:36:35;;;;;;;43.67;20.38;;;;;;;;;;5090848;28;20082;-71
2023/03/05 04:39:01;;;;;;;41.00;20.58;;;;;;;;;;5090331;28;20047;-72
2023/03/05 04:41:26;;;;;;;37.33;20.17;;;;;;;;;;5071522;28;20055;-71
2023/03/05 04:43:52;;;;;;;38.88;20.27;;;;;;;;;;5089419;28;20047;-71
2023/03/05 04:46:17;;;;;;;45.25;21.13;;;;;;;;;;5089915;28;20092;-72
2023/03/05 04:48:42;;;;;;;41.95;20.60;;;;;;;;;;5089525;28;20040;-71
2023/03/05 04:51:08;;;;;;;40.75;19.88;;;;;;;;;;5089607;28;20032;-72
2023/03/05 04:53:34;;;;;;;41.50;20.65;;;;;;;;;;5089332;28;20024;-71
2023/03/05 04:56:00;;;;;;;41.70;20.67;;;;;;;;;;5089406;28;20031;-72
2023/03/05 04:58:26;;;;;;;38.38;19.88;;;;;;;;;;5089118;28;20020;-71
2023/03/05 05:00:51;;;;;;;44.88;21.95;;;;;;;;;;5089244;28;20081;-72
2023/03/05 05:03:17;;;;;;;41.10;20.70;;;;;;;;;;5089535;28;20028;-72
2023/03/05 05:05:42;;;;;;;38.92;19.95;;;;;;;;;;5089444;28;20054;-71
2023/03/05 05:08:09;;;;;;;38.00;19.58;;;;;;;;;;5089432;28;20518;-71
2023/03/05 05:10:37;;;;;;;39.28;20.35;;;;;;;;;;5089379;28;20482;-72
2023/03/05 05:13:02;;;;;;;42.38;20.33;;;;;;;;;;5089493;28;20024;-73
2023/03/05 05:15:28;;;;;;;38.33;20.65;;;;;;;;;;5088596;28;20558;-72
2023/03/05 05:17:53;;;;;;;42.28;20.25;;;;;;;;;;5089181;28;20020;-73
2023/03/05 05:20:19;;;;;;;44.60;20.05;;;;;;;;;;5089211;28;20023;-72
2023/03/05 05:22:44;;;;;;;40.88;20.33;;;;;;;;;;5089524;28;20109;-72
2023/03/05 05:25:10;;;;;;;40.28;20.30;;;;;;;;;;5089003;28;20062;-71
2023/03/05 05:27:36;;;;;;;40.85;20.58;;;;;;;;;;5089515;28;20028;-72
2023/03/05 05:30:03;;;;;;;43.10;20.95;;;;;;;;;;5088919;28;20059;-72
2023/03/05 05:32:28;;;;;;;41.58;20.52;;;;;;;;;;5089364;28;20028;-73
2023/03/05 05:34:57;;;;;;;44.50;20.35;;;;;;;;;;5088812;28;20030;-74
2023/03/05 05:37:24;;;;;;;44.17;20.85;;;;;;;;;;5089061;28;20032;-71
2023/03/05 05:39:50;;;;;;;43.25;20.48;;;;;;;;;;5089019;28;20088;-71
2023/03/05 05:42:21;;;;;;;41.75;21.00;;;;;;;;;;5089427;28;20384;-71
2023/03/05 05:44:46;;;;;;;39.65;20.02;;;;;;;;;;5088592;28;20091;-71
2023/03/05 05:47:13;;;;;;;42.17;20.40;;;;;;;;;;5071391;28;20698;-72
2023/03/05 05:49:38;;;;;;;40.10;19.80;;;;;;;;;;5092128;28;20028;-73
2023/03/05 05:52:04;;;;;;;44.15;20.90;;;;;;;;;;5092478;28;20016;-72
2023/03/05 05:54:30;;;;;;;48.00;21.63;;;;;;;;;;5092282;28;20396;-72
2023/03/05 05:56:55;;;;;;;43.28;20.58;;;;;;;;;;5092418;28;20428;-71
2023/03/05 05:59:20;;;;;;;43.45;21.20;;;;;;;;;;5092292;28;20020;-71
2023/03/05 06:01:46;;;;;;;38.75;20.27;;;;;;;;;;5092429;28;20031;-73
2023/03/05 06:04:11;;;;;;;41.70;21.15;;;;;;;;;;5092368;28;20023;-72
2023/03/05 06:06:37;;;;;;;38.42;20.10;;;;;;;;;;5092099;28;20024;-71
2023/03/05 06:09:03;;;;;;;45.63;21.35;;;;;;;;;;5092195;28;20044;-72
2023/03/05 06:11:29;;;;;;;40.05;20.02;;;;;;;;;;5092170;28;20032;-73
2023/03/05 06:13:54;;;;;;;43.45;21.42;;;;;;;;;;5091874;28;20486;-72
2023/03/05 06:16:22;;;;;;;40.38;20.25;;;;;;;;;;5092009;28;20024;-71
2023/03/05 06:18:48;;;;;;;43.08;21.60;;;;;;;;;;5092471;28;20027;-71
2023/03/05 06:21:15;;;;;;;44.25;21.67;;;;;;;;;;5092098;28;20027;-71
2023/03/05 06:23:42;;;;;;;46.38;20.80;;;;;;;;;;5091956;28;20032;-72
2023/03/05 06:26:09;;;;;;;39.83;19.98;;;;;;;;;;5091469;28;20077;-71
2023/03/05 06:28:34;;;;;;;43.92;20.70;;;;;;;;;;5091848;28;20032;-70
2023/03/05 06:31:07;;;;;;;46.08;20.42;;;;;;;;;;5091774;28;20020;-73
2023/03/05 06:33:33;;;;;;;40.58;21.05;;;;;;;;;;5092045;28;20020;-71
2023/03/05 06:36:02;;;;;;;40.45;20.35;;;;;;;;;;5091546;28;20024;-70
2023/03/05 06:38:27;;;;;;;42.75;21.65;;;;;;;;;;5091682;28;20415;-70
2023/03/05 06:40:53;;;;;;;45.60;21.40;;;;;;;;;;5091618;28;20076;-70
2023/03/05 06:43:18;;;;;;;39.50;20.38;;;;;;;;;;5091708;28;20032;-73
2023/03/05 06:45:44;;;;;;;41.00;21.35;;;;;;;;;;5072854;28;20168;-71
2023/03/05 06:48:10;;;;;;;42.17;20.98;;;;;;;;;;5091823;28;20484;-71
2023/03/05 06:50:36;;;;;;;41.45;21.77;;;;;;;;;;5073395;28;20024;-71
2023/03/05 06:53:02;;;;;;;36.13;19.02;;;;;;;;;;5091424;28;20392;-71
2023/03/05 06:55:27;;;;;;;41.22;19.70;;;;;;;;;;5091091;28;20020;-72
2023/03/05 06:57:53;;;;;;;45.53;21.83;;;;;;;;;;5091627;28;20107;-71
2023/03/05 07:00:18;;;;;;;45.28;20.85;;;;;;;;;;5089965;28;20095;-71
2023/03/05 07:02:44;;;;;;;41.17;20.88;;;;;;;;;;5091134;28;20441;-71
2023/03/05 07:05:09;;;;;;;41.47;20.42;;;;;;;;;;5091138;28;20533;-73
2023/03/05 07:07:35;;;;;;;42.13;20.83;;;;;;;;;;5091262;28;20036;-72
2023/03/05 07:10:01;;;;;;;43.05;20.85;;;;;;;;;;5091354;28;20098;-71
2023/03/05 07:12:26;;;;;;;43.65;20.52;;;;;;;;;;5091088;28;20075;-71
2023/03/05 07:14:52;;;;;;;43.13;20.88;;;;;;;;;;5090698;28;20016;-70
2023/03/05 07:17:17;;;;;;;42.50;20.48;;;;;;;;;;5090869;28;20031;-70
2023/03/05 07:19:43;;;;;;;48.97;19.73;;;;;;;;;;5090936;28;20391;-71
2023/03/05 07:22:08;;;;;;;37.17;19.65;;;;;;;;;;5090674;28;20024;-70
2023/03/05 07:24:34;;;;;;;43.10;20.70;;;;;;;;;;5090825;28;20073;-72
2023/03/05 07:26:59;;;;;;;40.53;21.10;;;;;;;;;;5090781;28;20047;-71
2023/03/05 07:29:26;;;;;;;44.03;21.70;;;;;;;;;;5090430;28;20028;-71
2023/03/05 07:31:53;;;;;;;37.47;19.77;;;;;;;;;;5090546;28;20383;-73
2023/03/05 07:34:18;;;;;;;37.88;19.63;;;;;;;;;;5090769;28;20028;-78
2023/03/05 07:36:44;;;;;;;37.72;19.55;;;;;;;;;;5090073;28;20028;-72
2023/03/05 07:39:10;;;;;;;40.47;19.48;;;;;;;;;;5090519;28;20066;-72
2023/03/05 07:41:36;;;;;;;41.30;20.30;;;;;;;;;;5090736;28;20149;-72
2023/03/05 07:44:02;;;;;;;42.20;21.33;;;;;;;;;;5090107;28;20514;-72
2023/03/05 07:46:31;;;;;;;42.80;21.42;;;;;;;;;;5090093;28;20415;-72
2023/03/05 07:48:57;;;;;;;42.20;20.98;;;;;;;;;;5090651;28;20028;-71
2023/03/05 07:51:24;;;;;;;39.15;19.60;;;;;;;;;;5090032;28;20028;-71
2023/03/05 07:53:51;;;;;;;38.88;19.83;;;;;;;;;;5090188;28;20492;-71
2023/03/05 07:56:30;;;;;;;39.50;21.10;;;;;;;;;;5071911;28;20062;-70
2023/03/05 07:59:00;;;;;;;38.88;19.65;;;;;;;;;;5090716;28;20487;-71
2023/03/05 08:01:26;;;;;;;41.47;19.92;;;;;;;;;;5091338;28;20040;-70
2023/03/05 08:03:51;;;;;;;44.67;20.85;;;;;;;;;;5091451;28;20032;-71
2023/03/05 08:06:16;;;;;;;40.70;21.02;;;;;;;;;;5089854;28;20043;-71
2023/03/05 08:08:42;;;;;;;41.20;20.98;;;;;;;;;;5089747;28;20040;-71
2023/03/05 08:11:10;;;;;;;39.97;21.00;;;;;;;;;;5089809;28;20035;-71
2023/03/05 08:13:37;;;;;;;44.83;21.60;;;;;;;;;;5089947;28;20020;-72
2023/03/05 08:16:07;;;;;;;45.10;22.08;;;;;;;;;;5089539;28;20031;-72
2023/03/05 08:18:33;;;;;;;;;;;;;;;;;;5090363;28;20110;-72
2023/03/05 08:20:58;;;;;;;40.00;20.42;;;;;;;;;;5090046;28;20046;-71
2023/03/05 08:23:24;;;;;;;39.97;20.88;;;;;;;;;;5089711;28;20023;-71
2023/03/05 08:25:50;;;;;;;49.08;22.17;;;;;;;;;;5089753;28;20028;-71
2023/03/05 08:28:18;;;;;;;39.22;20.63;;;;;;;;;;5089385;28;20501;-71
2023/03/05 08:30:45;;;;;;;44.53;21.38;;;;;;;;;;5089424;28;20019;-71
2023/03/05 08:33:11;;;;;;;43.47;21.15;;;;;;;;;;5089423;28;20625;-72
2023/03/05 08:35:36;;;;;;;43.58;21.10;;;;;;;;;;5089834;28;20095;-71
2023/03/05 08:38:02;;;;;;;41.53;19.98;;;;;;;;;;5089549;28;20479;-73
2023/03/05 08:40:27;;;;;;;37.33;20.08;;;;;;;;;;5089681;28;20496;-73
2023/03/05 08:42:53;;;;;;;36.45;20.15;;;;;;;;;;5089449;28;20028;-74
2023/03/05 08:45:18;;;;;;;39.08;19.92;;;;;;;;;;5089209;28;20108;-71
2023/03/05 08:47:44;;;;;;;36.47;19.60;;;;;;;;;;5089322;28;20574;-70
2023/03/05 08:50:10;;;;;;;38.72;19.00;;;;;;;;;;5089510;28;20024;-70
2023/03/05 08:52:35;;;;;;;37.22;19.85;;;;;;;;;;5071340;28;20502;-72
2023/03/05 08:55:00;;;;;;;42.42;20.45;;;;;;;;;;5089562;28;20028;-72
2023/03/05 08:57:26;;;;;;;37.30;19.92;;;;;;;;;;5089299;28;20047;-71
2023/03/05 08:59:51;;;;;;;40.30;20.08;;;;;;;;;;5089136;28;20391;-71
2023/03/05 09:02:17;;;;;;;37.10;20.08;;;;;;;;;;5089243;28;20468;-71
2023/03/05 09:04:42;;;;;;;37.47;20.33;;;;;;;;;;5089209;28;20028;-71
2023/03/05 09:07:08;;;;;;;39.55;19.80;;;;;;;;;;5088774;28;20115;-71
2023/03/05 09:09:33;;;;;;;39.25;20.30;;;;;;;;;;5089515;28;20498;-73
2023/03/05 09:12:00;;;;;;;42.05;20.02;;;;;;;;;;5089108;28;20036;-72
2023/03/05 09:14:27;;;;;;;38.13;19.85;;;;;;;;;;5089295;28;20044;-73
2023/03/05 09:16:54;;;;;;;39.70;20.38;;;;;;;;;;5089113;28;20089;-71
2023/03/05 09:19:19;;;;;;;37.78;19.58;;;;;;;;;;5089332;28;20042;-72
2023/03/05 09:21:45;;;;;;;36.60;19.77;;;;;;;;;;5088895;28;20028;-71
2023/03/05 09:24:10;;;;;;;39.22;19.75;;;;;;;;;;5092253;28;20036;-71
2023/03/05 09:26:36;;;;;;;34.22;19.33;;;;;;;;;;5092811;28;20119;-70
2023/03/05 09:29:02;;;;;;;37.08;20.73;;;;;;;;;;5092629;28;20020;-72
2023/03/05 09:31:28;;;;;;;38.70;20.45;;;;;;;;;;5093282;28;20031;-71
2023/03/05 09:33:53;;;;;;;39.53;19.83;;;;;;;;;;5093032;28;20024;-71
2023/03/05 09:36:22;;;;;;;32.28;18.13;;;;;;;;;;5092975;28;20020;-70
2023/03/05 09:38:48;;;;;;;38.38;19.85;;;;;;;;;;5074547;28;20472;-70
2023/03/05 09:41:51;;;;;;;35.33;19.40;;;;;;;;;;5092616;28;20032;-71
2023/03/05 09:44:41;;;;;;;35.90;19.35;;;;;;;;;;5092327;28;20032;-71
2023/03/05 09:47:13;;;;;;;41.53;19.70;;;;;;;;;;5092711;28;20028;-71
2023/03/05 09:49:41;;;;;;;32.92;19.35;;;;;;;;;;5093315;28;20071;-71
2023/03/05 09:52:20;;;;;;;34.85;19.35;;;;;;;;;;5092966;28;20028;-72
2023/03/05 09:54:51;;;;;;;34.15;19.27;;;;;;;;;;5093035;28;20032;-72
2023/03/05 09:57:31;;;;;;;35.22;19.25;;;;;;;;;;5092685;28;20046;-71
2023/03/05 10:00:07;;;;;;;33.85;19.73;;;;;;;;;;5092250;28;20169;-70
2023/03/05 10:02:39;;;;;;;33.40;19.10;;;;;;;;;;5092699;28;20024;-72
2023/03/05 10:05:14;;;;;;;30.92;18.33;;;;;;;;;;5092463;28;20020;-72
2023/03/05 10:07:44;;;;;;;37.95;19.67;;;;;;;;;;5091832;28;20081;-71
2023/03/05 10:10:14;;;;;;;36.83;20.20;;;;;;;;;;5092456;28;20032;-73
2023/03/05 10:12:45;;;;;;;32.88;18.60;;;;;;;;;;5092209;28;20035;-71
2023/03/05 10:15:19;;;;;;;35.28;19.33;;;;;;;;;;5091712;28;20089;-72
2023/03/05 10:17:49;;;;;;;33.22;18.25;;;;;;;;;;5091799;28;20028;-75
2023/03/05 10:20:33;;;;;;;34.63;19.10;;;;;;;;;;5074259;28;20031;-75
2023/03/05 10:23:24;;;;;;;34.10;19.98;;;;;;;;;;5091758;28;20036;-72
2023/03/05 10:26:10;;;;;;;32.13;18.63;;;;;;;;;;5092227;28;20024;-72
2023/03/05 10:28:51;;;;;;;36.20;18.98;;;;;;;;;;5073336;28;20561;-72
2023/03/05 10:31:45;;;;;;;33.50;18.33;;;;;;;;;;5091751;28;20024;-72
2023/03/05 10:34:32;;;;;;;33.42;18.95;;;;;;;;;;5090588;28;20032;-71
2023/03/05 10:37:22;;;;;;;35.20;19.13;;;;;;;;;;5091702;28;20028;-73
2023/03/05 10:40:11;;;;;;;31.00;18.45;;;;;;;;;;5091925;28;20455;-74
2023/03/05 10:43:02;;;;;;;34.17;18.77;;;;;;;;;;5091665;28;20059;-70
2023/03/05 10:45:49;;;;;;;36.85;18.42;;;;;;;;;;5091500;28;20141;-72
2023/03/05 10:48:33;;;;;;;32.33;18.00;;;;;;;;;;5073249;28;20031;-73
2023/03/05 10:51:03;;;;;;;32.38;17.67;;;;;;;;;;5091423;28;20016;-73
2023/03/05 10:53:36;;;;;;;33.60;18.50;;;;;;;;;;5091499;28;20016;-73
2023/03/05 10:56:05;;;;;;;34.10;18.58;;;;;;;;;;5091147;28;20055;-71
2023/03/05 10:58:30;;;;;;;34.63;19.65;;;;;;;;;;5090979;28;20032;-75
2023/03/05 11:01:17;;;;;;;33.80;18.80;;;;;;;;;;5091754;28;20028;-72
2023/03/05 11:03:53;;;;;;;33.78;19.00;;;;;;;;;;5091333;28;20031;-72
2023/03/05 11:06:31;;;;;;;33.58;19.00;;;;;;;;;;5073005;28;20035;-71
2023/03/05 11:09:31;;;;;;;31.17;18.52;;;;;;;;;;5090766;28;20094;-73
2023/03/05 11:12:10;;;;;;;29.42;17.17;;;;;;;;;;5036720;28;20060;-73
2023/03/05 11:14:38;;;;;;;31.48;17.60;;;;;;;;;;5090779;28;20030;-74
2023/03/05 11:17:22;;;;;;;32.78;18.52;;;;;;;;;;5090688;28;20024;-71
2023/03/05 11:19:48;;;;;;;29.52;18.17;;;;;;;;;;5090939;28;20063;-71
2023/03/05 11:22:19;;;;;;;32.38;18.85;;;;;;;;;;5091028;28;20066;-73
2023/03/05 11:25:11;;;;;;;31.85;17.77;;;;;;;;;;5090958;28;20560;-71
2023/03/05 11:28:09;;;;;;;33.63;18.33;;;;;;;;;;5094536;28;20111;-71
2023/03/05 11:30:35;;;;;;;37.75;19.05;;;;;;;;;;5088931;28;20050;-72
2023/03/05 11:33:19;;;;;;;41.47;18.15;;;;;;;;;;5072558;28;20376;-71
2023/03/05 11:35:45;;;;;;;32.10;18.42;;;;;;;;;;5091034;28;20031;-72
2023/03/05 11:38:23;;;;;;;32.58;17.92;;;;;;;;;;5090575;28;20480;-71
2023/03/05 11:40:49;;;;;;;32.38;17.65;;;;;;;;;;5091301;28;20066;-75
2023/03/05 11:43:20;;;;;;;33.42;18.50;;;;;;;;;;5090596;28;20028;-73
2023/03/05 11:45:49;;;;;;;31.90;16.73;;;;;;;;;;5090561;28;20024;-74
2023/03/05 11:48:27;;;;;;;31.73;17.45;;;;;;;;;;5090064;28;20028;-72
2023/03/05 11:50:57;;;;;;;31.70;17.98;;;;;;;;;;5091263;28;20107;-74
2023/03/05 11:53:28;;;;;;;;;;;;;;;;;;5090610;28;20024;-73
2023/03/05 11:56:00;;;;;;;29.90;15.88;;;;;;;;;;5090498;28;20375;-71
2023/03/05 11:58:47;;;;;;;31.48;16.27;;;;;;;;;;5089647;28;20028;-71
2023/03/05 12:01:34;;;;;;;28.27;15.38;;;;;;;;;;5090246;28;20024;-73
2023/03/05 12:04:00;;;;;;;25.55;14.00;;;;;;;;;;5089847;28;20024;-72
2023/03/05 12:06:39;;;;;;;25.80;14.57;;;;;;;;;;5090407;28;20043;-72
2023/03/05 12:09:33;;;;;;;27.38;15.05;;;;;;;;;;5089801;28;20127;-71
2023/03/05 12:12:29;;;;;;;27.73;15.63;;;;;;;;;;5090298;28;20093;-72
2023/03/05 12:15:21;;;;;;;28.58;15.70;;;;;;;;;;5089649;28;20032;-72
2023/03/05 12:18:16;;;;;;;26.65;15.57;;;;;;;;;;5089895;28;20057;-71
2023/03/05 12:21:05;;;;;;;28.58;15.80;;;;;;;;;;5089730;28;20032;-72
2023/03/05 12:23:49;;;;;;;28.05;16.42;;;;;;;;;;5089827;28;20032;-71
2023/03/05 12:26:14;;;;;;;29.92;16.75;;;;;;;;;;5090021;28;20027;-71
2023/03/05 12:28:40;;;;;;;30.48;15.77;;;;;;;;;;5089160;28;20020;-72
2023/03/05 12:31:24;;;;;;;29.38;17.20;;;;;;;;;;5089695;28;20028;-71
2023/03/05 12:33:50;;;;;;;30.25;16.38;;;;;;;;;;5089854;28;20557;-72
2023/03/05 12:36:18;;;;;;;31.92;17.83;;;;;;;;;;5089488;28;20032;-71
2023/03/05 12:38:49;;;;;;;36.03;16.92;;;;;;;;;;5089091;28;20066;-71
2023/03/05 12:41:21;;;;;;;28.80;16.33;;;;;;;;;;5089533;28;20054;-71
2023/03/05 12:44:06;;;;;;;29.85;16.85;;;;;;;;;;5089180;28;20538;-70
2023/03/05 12:46:36;;;;;;;29.52;16.10;;;;;;;;;;5089397;28;20611;-71
2023/03/05 12:49:17;;;;;;;28.58;16.25;;;;;;;;;;5089610;28;20050;-71
2023/03/05 12:51:43;;;;;;;30.25;16.13;;;;;;;;;;5089615;28;20024;-71
2023/03/05 12:54:41;;;;;;;30.75;16.55;;;;;;;;;;5070980;28;20039;-71
2023/03/05 12:57:21;;;;;;;28.63;15.50;;;;;;;;;;5089543;28;20024;-74
2023/03/05 13:00:48;;;;;;;29.10;15.60;;;;;;;;;;5093153;28;20164;-72
2023/03/05 13:03:18;;;;;;;32.88;16.10;;;;;;;;;;5049540;28;20040;-71
2023/03/05 13:06:04;;;;;;;29.40;16.52;;;;;;;;;;5093582;28;20420;-71
2023/03/05 13:08:36;;;;;;;26.80;14.98;;;;;;;;;;5093183;28;20072;-71
2023/03/05 13:11:19;;;;;;;30.42;16.00;;;;;;;;;;5093286;28;20530;-71
2023/03/05 13:13:46;;;;;;;31.73;15.88;;;;;;;;;;5093009;28;20032;-71
2023/03/05 13:16:30;;;;;;;31.55;15.85;;;;;;;;;;5093274;28;20031;-71
2023/03/05 13:19:00;;;;;;;28.42;15.43;;;;;;;;;;5093249;28;20085;-71
2023/03/05 13:21:28;;;;;;;30.63;16.07;;;;;;;;;;5093614;28;20030;-72
2023/03/05 13:23:58;;;;;;;27.85;15.57;;;;;;;;;;5093431;28;20235;-72
2023/03/05 13:26:29;;;;;;;29.10;14.95;;;;;;;;;;5093134;28;20020;-73
2023/03/05 13:29:11;;;;;;;27.67;14.95;;;;;;;;;;5092466;28;20396;-72
2023/03/05 13:31:43;;;;;;;27.83;15.07;;;;;;;;;;5093114;28;20036;-71
2023/03/05 13:34:23;;;;;;;28.15;14.88;;;;;;;;;;5075101;28;20031;-71
2023/03/05 13:37:17;;;;;;;28.88;14.70;;;;;;;;;;5093097;28;20039;-71
2023/03/05 13:40:13;;;;;;;25.88;14.77;;;;;;;;;;5080913;28;20040;-72
2023/03/05 13:42:39;;;;;;;26.05;14.45;;;;;;;;;;5092587;28;20024;-71
2023/03/05 13:45:19;;;;;;;26.83;14.60;;;;;;;;;;5092224;28;20399;-71
2023/03/05 13:48:01;;;;;;;30.08;14.73;;;;;;;;;;5092813;28;20024;-71
2023/03/05 13:50:35;;;;;;;27.73;14.35;;;;;;;;;;5074509;28;20059;-72
2023/03/05 13:53:26;;;;;;;27.98;14.40;;;;;;;;;;5092916;28;20031;-71
2023/03/05 13:55:56;;;;;;;26.77;13.65;;;;;;;;;;5092777;28;20020;-71
2023/03/05 13:58:47;;;;;;;24.98;13.93;;;;;;;;;;5092238;28;20056;-70
2023/03/05 14:01:25;;;;;;;24.60;14.38;;;;;;;;;;5092369;28;20028;-72
2023/03/05 14:03:54;;;;;;;26.83;14.38;;;;;;;;;;5092509;28;20085;-72
2023/03/05 14:06:22;;;;;;;30.63;14.50;;;;;;;;;;5092194;28;20505;-71
2023/03/05 14:08:53;;;;;;;27.63;14.15;;;;;;;;;;5091667;28;20051;-70
2023/03/05 14:11:19;;;;;;;24.48;14.05;;;;;;;;;;5092148;28;20028;-72
2023/03/05 14:13:47;;;;;;;25.58;14.15;;;;;;;;;;5092263;28;20107;-71
2023/03/05 14:16:22;;;;;;;26.00;13.32;;;;;;;;;;5091869;28;20119;-71
2023/03/05 14:18:55;;;;;;;24.58;13.45;;;;;;;;;;5091944;28;20523;-71
2023/03/05 14:21:21;;;;;;;27.65;13.27;;;;;;;;;;5091782;28;20126;-73
2023/03/05 14:23:51;;;;;;;26.95;14.85;;;;;;;;;;5073869;28;20047;-71
2023/03/05 14:26:30;;;;;;;25.83;13.57;;;;;;;;;;5092052;28;20028;-73
2023/03/05 14:28:57;;;;;;;24.95;13.77;;;;;;;;;;5091865;28;20032;-70
2023/03/05 14:31:24;;;;;;;23.98;13.93;;;;;;;;;;5092029;28;20103;-72
2023/03/05 14:33:51;;;;;;;25.02;13.55;;;;;;;;;;5092216;28;20035;-71